createdAt,value
2023-03-06T00:00:19.472Z,39.4
2023-03-06T00:05:18.100Z,39.4
2023-03-06T00:10:18.364Z,39.4
2023-03-06T00:15:18.127Z,39.3
2023-03-06T00:20:19.434Z,39.2
2023-03-06T00:25:18.190Z,39.1
2023-03-06T00:30:18.418Z,39.1
2023-03-06T00:35:18.269Z,39.1
2023-03-06T00:40:18.425Z,39.1
2023-03-06T00:45:18.962Z,39.1
2023-03-06T00:50:18.311Z,38.9
2023-03-06T00:55:18.248Z,38.9
2023-03-06T01:00:17.600Z,39.0
2023-03-06T01:05:16.301Z,39.0
2023-03-06T01:10:16.689Z,38.9
2023-03-06T01:15:16.423Z,38.9
2023-03-06T01:20:16.362Z,38.8
2023-03-06T01:25:16.320Z,38.6
2023-03-06T01:30:16.329Z,38.5
2023-03-06T01:35:16.313Z,38.4
2023-03-06T01:40:16.718Z,38.4
2023-03-06T01:45:16.277Z,38.3
2023-03-06T01:50:16.394Z,38.3
2023-03-06T01:55:16.402Z,38.3
2023-03-06T02:00:16.481Z,38.2
2023-03-06T02:05:16.337Z,38.2
2023-03-06T02:10:16.571Z,38.1
2023-03-06T02:15:16.424Z,38.1
2023-03-06T02:20:16.778Z,38.1
2023-03-06T02:25:16.541Z,38.1
2023-03-06T02:30:16.562Z,38.0
2023-03-06T02:35:16.561Z,37.9
2023-03-06T02:40:16.647Z,37.9
2023-03-06T02:45:16.979Z,37.9
2023-03-06T02:50:16.703Z,37.8
2023-03-06T02:55:16.577Z,38.0
2023-03-06T03:00:16.792Z,38.1
2023-03-06T03:05:16.524Z,38.1
2023-03-06T03:10:16.640Z,38.1
2023-03-06T03:15:16.511Z,38.0
2023-03-06T03:20:16.903Z,37.9
2023-03-06T03:25:17.060Z,38.0
2023-03-06T03:30:16.745Z,38.0
2023-03-06T03:35:16.641Z,37.9
2023-03-06T03:40:16.864Z,38.1
2023-03-06T03:45:16.763Z,38.0
2023-03-06T03:50:16.727Z,37.9
2023-03-06T03:55:16.802Z,37.9
2023-03-06T04:00:16.820Z,37.9
2023-03-06T04:05:16.762Z,37.9
2023-03-06T04:10:16.914Z,37.9
2023-03-06T04:15:16.668Z,37.9
2023-03-06T04:20:16.852Z,37.8
2023-03-06T04:25:17.225Z,37.9
2023-03-06T04:30:17.060Z,37.9
2023-03-06T04:35:16.801Z,37.9
2023-03-06T04:40:17.342Z,37.8
2023-03-06T04:45:16.890Z,37.8
2023-03-06T04:50:16.879Z,37.9
2023-03-06T04:55:16.974Z,38.0
2023-03-06T05:00:18.030Z,38.1
2023-03-06T05:05:18.004Z,38.1
2023-03-06T05:10:17.936Z,38.2
2023-03-06T05:15:17.905Z,38.3
2023-03-06T05:20:18.013Z,38.5
2023-03-06T05:25:18.026Z,38.5
2023-03-06T05:30:18.003Z,38.3
2023-03-06T05:35:18.573Z,38.3
2023-03-06T05:40:18.482Z,38.4
2023-03-06T05:45:18.009Z,38.4
2023-03-06T05:50:18.092Z,38.4
2023-03-06T05:55:18.186Z,38.6
2023-03-06T06:00:18.082Z,38.6
2023-03-06T06:05:18.686Z,38.6
2023-03-06T06:10:18.137Z,38.6
2023-03-06T06:15:18.066Z,38.8
2023-03-06T06:20:18.118Z,38.9
2023-03-06T06:25:18.265Z,38.9
2023-03-06T06:30:18.379Z,38.9
2023-03-06T06:35:18.187Z,38.9
2023-03-06T06:40:18.736Z,39.1
2023-03-06T06:45:18.160Z,39.1
2023-03-06T06:50:16.912Z,39.1
2023-03-06T06:55:16.204Z,39.1
2023-03-06T07:00:16.306Z,39.1
2023-03-06T07:05:16.441Z,39.1
2023-03-06T07:10:16.325Z,38.9
2023-03-06T07:15:16.256Z,38.8
2023-03-06T07:20:16.619Z,38.7
2023-03-06T07:25:16.422Z,38.6
2023-03-06T07:30:16.463Z,38.6
2023-03-06T07:35:20.365Z,38.4
2023-03-06T07:40:16.477Z,38.4
2023-03-06T07:45:17.442Z,38.4
2023-03-06T07:50:16.422Z,38.4
2023-03-06T07:55:16.529Z,38.3
2023-03-06T08:00:16.638Z,38.4
2023-03-06T08:05:16.715Z,38.4
2023-03-06T08:10:16.498Z,38.2
2023-03-06T08:15:16.410Z,38.3
2023-03-06T08:20:16.894Z,38.2
2023-03-06T08:25:16.620Z,38.1
2023-03-06T08:30:16.581Z,38.1
2023-03-06T08:35:16.604Z,38.2
2023-03-06T08:40:18.492Z,38.4
2023-03-06T08:45:16.717Z,38.3
2023-03-06T08:50:16.995Z,38.3
2023-03-06T08:55:16.649Z,38.4
2023-03-06T09:00:16.995Z,38.3
2023-03-06T09:05:16.581Z,38.3
2023-03-06T09:10:17.148Z,38.4
2023-03-06T09:15:16.636Z,38.4
2023-03-06T09:20:16.897Z,38.3
2023-03-06T09:25:16.652Z,38.4
2023-03-06T09:30:16.696Z,38.3
2023-03-06T09:35:17.349Z,38.2
2023-03-06T09:40:17.846Z,38.1
2023-03-06T09:45:16.791Z,37.9
2023-03-06T09:50:16.882Z,38.0
2023-03-06T09:55:16.689Z,38.0
2023-03-06T10:00:16.775Z,38.2
2023-03-06T10:05:16.778Z,38.2
2023-03-06T10:10:17.152Z,38.1
2023-03-06T10:15:16.829Z,37.9
2023-03-06T10:20:17.177Z,37.9
2023-03-06T10:25:16.813Z,37.9
2023-03-06T10:30:16.907Z,37.9
2023-03-06T10:35:17.146Z,37.9
2023-03-06T10:40:16.950Z,37.8
2023-03-06T10:45:17.128Z,37.6
2023-03-06T10:50:17.166Z,37.5
2023-03-06T10:55:17.722Z,37.5
2023-03-06T11:00:19.192Z,37.4
2023-03-06T11:05:16.995Z,37.5
2023-03-06T11:10:17.458Z,37.4
2023-03-06T11:15:17.038Z,37.3
2023-03-06T11:20:17.311Z,37.4
2023-03-06T11:25:18.463Z,37.4
2023-03-06T11:30:17.228Z,37.6
2023-03-06T11:35:17.055Z,37.6
2023-03-06T11:40:17.332Z,37.6
2023-03-06T11:45:17.040Z,37.8
2023-03-06T11:50:17.360Z,37.8
2023-03-06T11:55:17.384Z,38.1
2023-03-06T12:00:17.339Z,38.1
2023-03-06T12:05:17.385Z,38.2
2023-03-06T12:10:17.425Z,38.4
2023-03-06T12:15:17.234Z,38.4
2023-03-06T12:20:17.262Z,38.6
2023-03-06T12:25:17.125Z,38.7
2023-03-06T12:30:17.388Z,38.8
2023-03-06T12:35:17.285Z,39.0
2023-03-06T12:40:17.702Z,39.1
2023-03-06T12:45:17.245Z,39.3
2023-03-06T12:50:17.462Z,39.4
2023-03-06T12:55:17.225Z,39.6
2023-03-06T13:00:17.581Z,39.7
2023-03-06T13:05:17.349Z,39.8
2023-03-06T13:10:17.380Z,40.0
2023-03-06T13:15:17.238Z,40.1
2023-03-06T13:20:17.865Z,40.4
2023-03-06T13:25:17.283Z,40.4
2023-03-06T13:30:17.429Z,40.7
2023-03-06T13:35:17.620Z,41.0
2023-03-06T13:40:17.530Z,41.2
2023-03-06T13:45:17.369Z,41.4
2023-03-06T13:50:17.872Z,41.5
2023-03-06T13:55:17.396Z,41.4
2023-03-06T14:00:17.668Z,41.7
2023-03-06T14:05:17.440Z,41.9
2023-03-06T14:10:18.483Z,42.1
2023-03-06T14:15:17.476Z,42.0
2023-03-06T14:20:17.626Z,42.5
2023-03-06T14:25:17.739Z,42.5
2023-03-06T14:30:17.818Z,42.2
2023-03-06T14:35:17.905Z,42.7
2023-03-06T14:40:17.606Z,42.9
2023-03-06T14:45:17.713Z,43.0
2023-03-06T14:50:19.257Z,42.2
2023-03-06T14:55:17.546Z,41.9
2023-03-06T15:00:17.982Z,41.2
2023-03-06T15:05:17.700Z,41.7
2023-03-06T15:10:17.803Z,40.9
2023-03-06T15:15:17.593Z,40.7
2023-03-06T15:20:18.326Z,41.2
2023-03-06T15:25:18.612Z,41.3
2023-03-06T15:30:18.640Z,41.5
2023-03-06T15:35:17.798Z,40.4
2023-03-06T15:40:17.843Z,39.5
2023-03-06T15:45:17.723Z,40.5
2023-03-06T15:50:18.173Z,40.4
2023-03-06T15:55:17.962Z,39.5
2023-03-06T16:00:26.946Z,38.9
2023-03-06T16:05:17.962Z,39.1
2023-03-06T16:10:18.168Z,38.4
2023-03-06T16:15:17.807Z,38.7
2023-03-06T16:20:17.899Z,39.1
2023-03-06T16:25:17.798Z,40.0
2023-03-06T16:30:17.966Z,37.6
2023-03-06T16:35:18.120Z,36.9
2023-03-06T16:40:18.136Z,33.8
2023-03-06T16:45:17.988Z,32.6
2023-03-06T16:50:18.133Z,34.6
2023-03-06T16:55:17.914Z,32.2
2023-03-06T17:00:17.952Z,32.9
2023-03-06T17:05:18.318Z,33.6
2023-03-06T17:10:18.028Z,33.3
2023-03-06T17:15:17.960Z,29.3
2023-03-06T17:20:18.486Z,30.4
2023-03-06T17:25:17.880Z,31.0
2023-03-06T17:30:18.251Z,31.8
2023-03-06T17:35:18.879Z,29.6
2023-03-06T17:40:18.249Z,28.8
2023-03-06T17:45:18.021Z,28.3
2023-03-06T17:50:18.281Z,30.0
2023-03-06T17:55:17.989Z,29.5
2023-03-06T18:00:18.097Z,29.2
2023-03-06T18:05:18.377Z,29.0
2023-03-06T18:10:19.593Z,29.0
2023-03-06T18:15:18.138Z,29.3
2023-03-06T18:20:18.433Z,28.9
2023-03-06T18:25:18.460Z,28.8
2023-03-06T18:30:18.630Z,27.6
2023-03-06T18:35:16.273Z,28.4
2023-03-06T18:40:16.386Z,28.1
2023-03-06T18:45:16.602Z,28.8
2023-03-06T18:50:16.394Z,28.6
2023-03-06T18:55:16.392Z,29.5
2023-03-06T19:00:16.302Z,30.3
2023-03-06T19:05:16.413Z,29.8
2023-03-06T19:10:16.338Z,29.3
2023-03-06T19:15:16.317Z,30.2
2023-03-06T19:20:16.920Z,28.8
2023-03-06T19:25:16.508Z,28.3
2023-03-06T19:30:16.791Z,29.8
2023-03-06T19:35:16.702Z,29.3
2023-03-06T19:40:16.645Z,28.3
2023-03-06T19:45:16.430Z,27.1
2023-03-06T19:50:16.731Z,28.8
2023-03-06T19:55:16.668Z,28.1
2023-03-06T20:00:16.549Z,27.9
2023-03-06T20:05:16.510Z,27.0
2023-03-06T20:10:16.483Z,27.1
2023-03-06T20:15:16.449Z,25.2
2023-03-06T20:20:16.705Z,26.4
2023-03-06T20:25:16.937Z,26.9
2023-03-06T20:30:16.634Z,25.9
2023-03-06T20:35:17.564Z,27.5
2023-03-06T20:40:16.723Z,25.9
2023-03-06T20:45:16.518Z,27.7
2023-03-06T20:50:17.186Z,26.8
2023-03-06T20:55:16.611Z,25.7
2023-03-06T21:00:16.861Z,25.1
2023-03-06T21:05:16.667Z,26.0
2023-03-06T21:10:16.734Z,24.2
2023-03-06T21:15:16.687Z,24.7
2023-03-06T21:20:16.857Z,24.6
2023-03-06T21:25:16.703Z,26.2
2023-03-06T21:30:17.481Z,25.0
2023-03-06T21:35:16.777Z,24.8
2023-03-06T21:40:16.854Z,24.7
2023-03-06T21:45:16.950Z,24.6
2023-03-06T21:50:16.950Z,25.0
2023-03-06T21:55:16.772Z,24.3
2023-03-06T22:00:17.113Z,23.6
2023-03-06T22:05:17.258Z,24.5
2023-03-06T22:10:16.865Z,24.3
2023-03-06T22:15:16.828Z,24.1
2023-03-06T22:20:17.140Z,24.3
2023-03-06T22:25:16.944Z,24.2
2023-03-06T22:30:16.916Z,24.5
2023-03-06T22:35:16.883Z,23.9
2023-03-06T22:40:17.179Z,25.2
2023-03-06T22:45:16.921Z,24.6
2023-03-06T22:50:17.003Z,24.6
2023-03-06T22:55:16.903Z,24.4
2023-03-06T23:00:16.348Z,24.2
2023-03-06T23:05:18.309Z,24.2
2023-03-06T23:10:18.533Z,24.2
2023-03-06T23:15:17.995Z,23.7
2023-03-06T23:20:18.234Z,24.1
2023-03-06T23:25:17.990Z,24.0
2023-03-06T23:30:18.457Z,25.0
2023-03-06T23:35:18.234Z,24.0
2023-03-06T23:40:18.410Z,23.9
2023-03-06T23:45:19.383Z,24.3
2023-03-06T23:50:18.595Z,24.6
2023-03-06T23:55:19.410Z,24.5
